Terminal Aerodrome Forecast
Issued by NWS Kansas City/Pleasant Hill, MO

Home | Current Version | Previous Version | Text Only | Print | Product List | Glossary Off
Versions: 1 2 3 4 5 6 7 8 9 10 11 12 13 14

000
FTUS43 KEAX 270926 AAA
TAFMCI
TAF AMD
KMCI 270926Z 2709/2806 17006KT P6SM SKC
      TEMPO 2709/2713 VRB03KT 1SM BR
     FM272000 14010KT P6SM BKN080
     FM280200 16009KT P6SM VCSH BKN030=

USA.gov is the U.S. government's official web portal to all federal, state and local government web resources and services.